Time;durP1;ratioP1;P1;durP2;ratioP2;P2;SDS_P1;SDS_P2;PMS_P1;PMS_P2;Temp;Humidity;BMP_temperature;BMP_pressure;BME280_temperature;BME280_humidity;BME280_pressure;Samples;Min_cycle;Max_cycle;Signal;HPM_P1;HPM_P2
2022/12/09 00:01:21;;;;;;;;;;;;;;;19.83;44.29;100808.98;101787;1333;61393;-84
2022/12/09 00:03:46;;;;;;;;;;;;;;;19.83;44.45;100812.17;101811;1340;61330;-83
2022/12/09 00:06:14;;;;;;;;;;;;;;;19.83;44.33;100815.39;101781;1339;61432;-83
2022/12/09 00:08:39;;;;;;;;;;;;;;;19.84;44.33;100811.05;101802;1335;74406;-83
2022/12/09 00:11:05;;;;;;;;;;;;;;;19.84;44.39;100803.73;101786;1335;61317;-83
2022/12/09 00:13:30;;;;;;;;;;;;;;;19.84;44.35;100809.96;101815;1338;61395;-84
2022/12/09 00:15:58;;;;;;;;;;;;;;;19.84;44.34;100812.28;101801;1326;61426;-83
2022/12/09 00:18:23;;;;;;;;;;;;;;;19.84;44.31;100813.17;101761;1335;61480;-84
2022/12/09 00:20:49;;;;;;;;;;;;;;;19.84;44.18;100823.52;101785;1339;61319;-83
2022/12/09 00:23:14;;;;;;;;;;;;;;;19.84;44.36;100829.59;101793;1338;59449;-83
2022/12/09 00:25:39;;;;;;;;;;;;;;;19.84;44.42;100834.59;101810;1338;61305;-85
2022/12/09 00:28:05;;;;;;;;;;;;;;;19.84;44.41;100839.45;101791;1340;61331;-84
2022/12/09 00:30:30;;;;;;;;;;;;;;;19.84;44.34;100837.80;101797;1324;61430;-84
2022/12/09 00:32:56;;;;;;;;;;;;;;;19.84;44.33;100836.73;101848;1337;61348;-84
2022/12/09 00:35:21;;;;;;;;;;;;;;;19.84;44.31;100831.38;101981;1336;61334;-84
2022/12/09 00:37:47;;;;;;;;;;;;;;;19.84;44.28;100824.23;101953;1336;61340;-84
2022/12/09 00:40:12;;;;;;;;;;;;;;;19.84;44.16;100820.66;101956;1320;61306;-84
2022/12/09 00:42:38;;;;;;;;;;;;;;;19.85;44.41;100827.94;101950;1329;61742;-85
2022/12/09 00:45:04;;;;;;;;;;;;;;;19.85;44.37;100834.37;101939;1329;61444;-84
2022/12/09 00:47:29;;;;;;;;;;;;;;;19.85;44.35;100835.06;101972;1329;59313;-84
2022/12/09 00:49:54;;;;;;;;;;;;;;;19.85;44.31;100826.65;101920;1332;61227;-84
2022/12/09 00:52:20;;;;;;;;;;;;;;;19.85;44.34;100822.74;101966;1329;61422;-84
2022/12/09 00:54:45;;;;;;;;;;;;;;;19.85;44.43;100812.73;102027;1329;61314;-85
2022/12/09 00:57:11;;;;;;;;;;;;;;;19.86;44.32;100808.24;101900;1336;61768;-84
2022/12/09 00:59:36;;;;;;;;;;;;;;;19.86;44.47;100804.85;102062;1329;61276;-84
2022/12/09 01:02:03;;;;;;;;;;;;;;;19.86;44.26;100813.20;101922;1335;61318;-83
2022/12/09 01:04:29;;;;;;;;;;;;;;;19.86;44.29;100815.19;102049;1320;73544;-84
2022/12/09 01:06:54;;;;;;;;;;;;;;;19.86;44.29;100810.70;102046;1326;61323;-84
2022/12/09 01:09:20;;;;;;;;;;;;;;;19.86;44.32;100808.23;101959;1323;61314;-84
2022/12/09 01:11:45;;;;;;;;;;;;;;;19.86;44.43;100798.55;102046;1334;61375;-84
2022/12/09 01:14:10;;;;;;;;;;;;;;;19.86;44.35;100800.36;102029;1329;61359;-84
2022/12/09 01:16:36;;;;;;;;;;;;;;;19.86;44.30;100796.77;101952;1330;61335;-85
2022/12/09 01:19:03;;;;;;;;;;;;;;;19.87;44.22;100794.59;102041;1334;61322;-84
2022/12/09 01:21:31;;;;;;;;;;;;;;;19.87;44.32;100797.96;101976;1326;61353;-84
2022/12/09 01:23:57;;;;;;;;;;;;;;;19.87;44.27;100805.09;102096;1326;61376;-84
2022/12/09 01:26:22;;;;;;;;;;;;;;;19.87;44.15;100798.51;102068;1330;61311;-83
2022/12/09 01:28:51;;;;;;;;;;;;;;;19.87;44.39;100803.67;102063;1330;61321;-83
2022/12/09 01:31:18;;;;;;;;;;;;;;;19.87;44.17;100809.02;102059;1329;61210;-83
2022/12/09 01:33:43;;;;;;;;;;;;;;;19.88;44.38;100807.23;101975;1329;61313;-84
2022/12/09 01:36:38;;;;;;;;;;;;;;;19.88;44.35;100808.96;101931;1336;61328;-84
2022/12/09 01:39:04;;;;;;;;;;;;;;;19.88;44.19;100812.73;101835;1339;75566;-83
2022/12/09 01:41:29;;;;;;;;;;;;;;;19.88;44.40;100821.63;101807;1326;62681;-83
2022/12/09 01:44:08;;;;;;;;;;;;;;;19.88;44.40;100820.92;101801;1341;61357;-83
2022/12/09 01:46:33;;;;;;;;;;;;;;;19.89;44.32;100826.95;101833;1333;72663;-84
2022/12/09 01:49:24;;;;;;;;;;;;;;;19.90;44.29;100826.39;101806;1334;61494;-84
2022/12/09 01:52:16;;;;;;;;;;;;;;;19.89;44.34;100819.27;101526;1338;61387;-83
2022/12/09 01:54:42;;;;;;;;;;;;;;;19.89;44.38;100821.57;101513;1338;61310;-84
2022/12/09 01:57:07;;;;;;;;;;;;;;;19.90;44.37;100820.80;101484;1344;61321;-83
2022/12/09 01:59:32;;;;;;;;;;;;;;;19.91;44.32;100823.61;101468;1339;61402;-83
2022/12/09 02:02:26;;;;;;;;;;;;;;;19.90;44.19;100817.19;101500;1338;61411;-83
2022/12/09 02:04:52;;;;;;;;;;;;;;;19.91;44.24;100832.53;101021;1343;61524;-83
2022/12/09 02:07:17;;;;;;;;;;;;;;;19.91;44.20;100839.14;100940;1353;61343;-84
2022/12/09 02:09:43;;;;;;;;;;;;;;;19.91;44.24;100835.55;101013;1350;61352;-84
2022/12/09 02:12:14;;;;;;;;;;;;;;;19.92;44.18;100821.77;100989;1350;61410;-84
2022/12/09 02:14:42;;;;;;;;;;;;;;;19.91;44.28;100798.22;101038;1350;61319;-84
2022/12/09 02:17:10;;;;;;;;;;;;;;;19.91;44.21;100802.15;101308;1347;72592;-84
2022/12/09 02:20:00;;;;;;;;;;;;;;;19.92;44.13;100802.48;101320;1341;75475;-84
2022/12/09 02:22:28;;;;;;;;;;;;;;;19.92;44.11;100811.38;101321;1341;61400;-83
2022/12/09 02:24:54;;;;;;;;;;;;;;;19.92;44.14;100801.73;101267;1347;61365;-85
2022/12/09 02:27:49;;;;;;;;;;;;;;;19.92;44.31;100790.45;101311;1339;72498;-84
2022/12/09 02:30:16;;;;;;;;;;;;;;;19.93;44.15;100783.66;101585;1341;74610;-84
2022/12/09 02:32:41;;;;;;;;;;;;;;;19.92;44.10;100795.64;101698;1341;61177;-85
2022/12/09 02:35:07;;;;;;;;;;;;;;;19.92;44.13;100791.54;101762;1334;61335;-84
2022/12/09 02:37:34;;;;;;;;;;;;;;;19.92;44.14;100796.53;101728;1339;61328;-85
2022/12/09 02:40:20;;;;;;;;;;;;;;;19.93;44.13;100794.00;101715;1337;62678;-83
2022/12/09 02:42:46;;;;;;;;;;;;;;;19.93;44.23;100780.60;101959;1327;61385;-83
2022/12/09 02:45:11;;;;;;;;;;;;;;;19.93;44.02;100779.89;102085;1327;61395;-84
2022/12/09 02:47:38;;;;;;;;;;;;;;;19.93;44.19;100793.42;102026;1329;61410;-84
2022/12/09 02:50:04;;;;;;;;;;;;;;;19.93;44.18;100792.36;102037;1323;61312;-84
2022/12/09 02:52:31;;;;;;;;;;;;;;;19.93;44.21;100792.73;102050;1333;61312;-84
2022/12/09 02:54:57;;;;;;;;;;;;;;;19.93;44.20;100787.56;102059;1333;61765;-83
2022/12/09 02:57:23;;;;;;;;;;;;;;;19.93;44.25;100777.02;101951;1328;61413;-83
2022/12/09 02:59:49;;;;;;;;;;;;;;;19.93;44.22;100769.34;102069;1327;61194;-83
2022/12/09 03:02:19;;;;;;;;;;;;;;;19.93;44.14;100772.19;101954;1329;61358;-84
2022/12/09 03:04:46;;;;;;;;;;;;;;;19.93;44.25;100764.14;102065;1329;61271;-84
2022/12/09 03:07:21;;;;;;;;;;;;;;;19.94;44.26;100760.72;101973;1329;73672;-85
2022/12/09 03:09:46;;;;;;;;;;;;;;;19.95;44.17;100762.30;101936;1329;75562;-85
2022/12/09 03:12:13;;;;;;;;;;;;;;;19.94;44.25;100768.21;101956;1329;61321;-84
2022/12/09 03:14:44;;;;;;;;;;;;;;;19.95;44.08;100767.49;102033;1320;61730;-85
2022/12/09 03:17:12;;;;;;;;;;;;;;;19.95;44.10;100766.06;101955;1329;73676;-85
2022/12/09 03:19:54;;;;;;;;;;;;;;;19.94;44.27;100775.36;102090;1332;75625;-84
2022/12/09 03:22:20;;;;;;;;;;;;;;;19.94;44.27;100782.15;102061;1327;61148;-84
2022/12/09 03:24:51;;;;;;;;;;;;;;;19.95;44.24;100794.10;101948;1327;61222;-85
2022/12/09 03:27:32;;;;;;;;;;;;;;;19.95;44.27;100796.24;102060;1329;72618;-85
2022/12/09 03:29:57;;;;;;;;;;;;;;;19.95;44.11;100777.11;102070;1327;75443;-84
2022/12/09 03:32:24;;;;;;;;;;;;;;;19.95;44.23;100779.09;102062;1329;61937;-84
2022/12/09 03:34:49;;;;;;;;;;;;;;;19.95;44.24;100790.66;101954;1329;61436;-85
2022/12/09 03:37:15;;;;;;;;;;;;;;;19.96;44.23;100798.30;101950;1329;61475;-84
2022/12/09 03:39:41;;;;;;;;;;;;;;;19.95;44.17;100787.80;102061;1329;61317;-84
2022/12/09 03:42:14;;;;;;;;;;;;;;;19.96;44.23;100782.74;102127;1333;61311;-84
2022/12/09 03:44:41;;;;;;;;;;;;;;;19.96;44.23;100785.77;101978;1328;61304;-83
2022/12/09 03:47:06;;;;;;;;;;;;;;;19.96;44.22;100784.17;101944;1333;61346;-83
2022/12/09 03:49:32;;;;;;;;;;;;;;;19.97;44.17;100778.25;102066;1329;61261;-84
2022/12/09 03:52:00;;;;;;;;;;;;;;;19.97;44.17;100777.88;101954;1329;61779;-84
2022/12/09 03:54:27;;;;;;;;;;;;;;;19.97;44.19;100780.34;102035;1320;61432;-83
2022/12/09 03:56:53;;;;;;;;;;;;;;;19.97;44.16;100775.17;101965;1328;62439;-85
2022/12/09 03:59:18;;;;;;;;;;;;;;;19.97;44.16;100774.27;102043;1329;61395;-83
2022/12/09 04:01:44;;;;;;;;;;;;;;;19.97;44.18;100780.52;102071;1326;61742;-84
2022/12/09 04:04:09;;;;;;;;;;;;;;;19.97;44.18;100775.67;102068;1329;59534;-83
2022/12/09 04:06:35;;;;;;;;;;;;;;;19.97;44.17;100775.34;102063;1323;62125;-84
2022/12/09 04:09:00;;;;;;;;;;;;;;;19.98;44.16;100777.46;101910;1337;61340;-84
2022/12/09 04:11:28;;;;;;;;;;;;;;;19.97;44.10;100782.84;102059;1332;61273;-84
2022/12/09 04:13:53;;;;;;;;;;;;;;;19.97;44.11;100788.56;101958;1328;74427;-84
2022/12/09 04:16:19;;;;;;;;;;;;;;;19.97;44.08;100788.56;101969;1327;61917;-84
2022/12/09 04:18:44;;;;;;;;;;;;;;;19.98;44.17;100789.95;102047;1329;59434;-84
2022/12/09 04:21:11;;;;;;;;;;;;;;;19.98;44.11;100790.49;101945;1328;61406;-84
2022/12/09 04:23:36;;;;;;;;;;;;;;;19.98;44.20;100791.71;102030;1333;61311;-85
2022/12/09 04:26:02;;;;;;;;;;;;;;;19.98;44.17;100788.52;102068;1329;61334;-84
2022/12/09 04:28:29;;;;;;;;;;;;;;;19.99;44.12;100789.53;102043;1326;61544;-84
2022/12/09 04:30:55;;;;;;;;;;;;;;;19.98;43.98;100796.35;101960;1329;61391;-85
2022/12/09 04:33:20;;;;;;;;;;;;;;;19.99;44.05;100804.91;102066;1328;61248;-85
2022/12/09 04:35:45;;;;;;;;;;;;;;;19.98;44.05;100801.89;101948;1328;61331;-84
2022/12/09 04:38:11;;;;;;;;;;;;;;;19.99;43.98;100806.49;101970;1329;61583;-85
2022/12/09 04:40:37;;;;;;;;;;;;;;;19.99;44.04;100812.02;101996;1329;61350;-85
2022/12/09 04:43:02;;;;;;;;;;;;;;;19.99;44.04;100818.63;102043;1327;61146;-83
2022/12/09 04:45:27;;;;;;;;;;;;;;;19.99;44.08;100819.70;102020;1328;61301;-83
2022/12/09 04:47:53;;;;;;;;;;;;;;;19.99;44.01;100808.13;101937;1329;61385;-84
2022/12/09 04:50:18;;;;;;;;;;;;;;;19.99;43.91;100813.46;102042;1329;61375;-84
2022/12/09 04:52:44;;;;;;;;;;;;;;;19.99;43.76;100811.52;102067;1327;61267;-85
2022/12/09 04:55:12;;;;;;;;;;;;;;;19.98;43.72;100807.82;102023;1333;61327;-84
2022/12/09 04:58:01;;;;;;;;;;;;;;;19.97;43.59;100798.02;101937;1330;71594;-84
2022/12/09 05:00:26;;;;;;;;;;;;;;;19.96;43.69;100802.58;101835;1332;74430;-83
2022/12/09 05:02:52;;;;;;;;;;;;;;;19.96;43.69;100811.52;101769;1336;61410;-83
2022/12/09 05:05:17;;;;;;;;;;;;;;;19.96;43.59;100826.90;101782;1335;60069;-83
2022/12/09 05:07:43;;;;;;;;;;;;;;;19.95;43.53;100818.55;101806;1340;61420;-81
2022/12/09 05:10:08;;;;;;;;;;;;;;;19.94;43.57;100813.94;101815;1329;61540;-83
2022/12/09 05:12:35;;;;;;;;;;;;;;;19.95;43.56;100806.41;101783;1328;74396;-83
2022/12/09 05:15:00;;;;;;;;;;;;;;;19.94;43.49;100808.94;101817;1335;61235;-83
2022/12/09 05:17:26;;;;;;;;;;;;;;;19.94;43.37;100822.15;101774;1339;61430;-84
2022/12/09 05:19:52;;;;;;;;;;;;;;;19.94;43.25;100830.57;101772;1339;61953;-85
2022/12/09 05:22:17;;;;;;;;;;;;;;;19.95;43.44;100830.90;101782;1335;61338;-84
2022/12/09 05:24:46;;;;;;;;;;;;;;;19.95;43.35;100831.94;101846;1333;61434;-84
2022/12/09 05:27:12;;;;;;;;;;;;;;;19.94;43.23;100823.05;101813;1333;61188;-84
2022/12/09 05:29:38;;;;;;;;;;;;;;;19.93;43.22;100821.84;101739;1325;61328;-84
2022/12/09 05:32:03;;;;;;;;;;;;;;;19.91;43.21;100821.30;101604;1335;61410;-84
2022/12/09 05:34:29;;;;;;;;;;;;;;;19.87;43.34;100826.70;101558;1324;60136;-84
2022/12/09 05:36:54;;;;;;;;;;;;;;;19.85;43.29;100832.77;101647;1324;61732;-82
2022/12/09 05:39:21;;;;;;;;;;;;;;;19.82;43.18;100839.92;101866;1313;61325;-83
2022/12/09 05:41:46;;;;;;;;;;;;;;;19.78;43.13;100844.07;101627;1320;61270;-83
2022/12/09 05:44:12;;;;;;;;;;;;;;;19.74;43.09;100831.27;101679;1316;61760;-83
2022/12/09 05:46:37;;;;;;;;;;;;;;;19.69;43.15;100819.27;101887;1320;61231;-84
2022/12/09 05:49:03;;;;;;;;;;;;;;;19.65;43.21;100824.56;101757;1320;61434;-83
2022/12/09 05:51:28;;;;;;;;;;;;;;;19.61;43.01;100843.39;101550;1313;59857;-83
2022/12/09 05:53:54;;;;;;;;;;;;;;;19.56;43.05;100854.57;101656;1316;59736;-83
2022/12/09 05:56:20;;;;;;;;;;;;;;;19.52;42.94;100854.31;101602;1316;61191;-83
2022/12/09 05:58:46;;;;;;;;;;;;;;;19.48;42.90;100853.49;101585;1319;61273;-83
2022/12/09 06:01:13;;;;;;;;;;;;;;;19.44;42.95;100855.89;101366;1320;65425;-83
2022/12/09 06:03:38;;;;;;;;;;;;;;;19.39;42.90;100851.00;101561;1313;60077;-83
2022/12/09 06:06:08;;;;;;;;;;;;;;;19.36;42.78;100850.67;101565;1313;61289;-84
2022/12/09 06:08:33;;;;;;;;;;;;;;;19.33;42.99;100856.56;101613;1320;74592;-84
2022/12/09 06:10:59;;;;;;;;;;;;;;;19.32;42.90;100858.41;101574;1318;61314;-85
2022/12/09 06:13:24;;;;;;;;;;;;;;;19.32;42.87;100873.02;101590;1321;61278;-84
2022/12/09 06:15:50;;;;;;;;;;;;;;;19.33;42.82;100871.73;101521;1314;61278;-84
2022/12/09 06:18:15;;;;;;;;;;;;;;;19.34;42.90;100874.33;101616;1313;61372;-84
2022/12/09 06:20:41;;;;;;;;;;;;;;;19.37;42.83;100871.52;101600;1320;74314;-84
2022/12/09 06:23:06;;;;;;;;;;;;;;;19.39;42.88;100876.36;101596;1319;61520;-84
2022/12/09 06:25:32;;;;;;;;;;;;;;;19.41;42.80;100882.98;101475;1320;61273;-84
2022/12/09 06:28:00;;;;;;;;;;;;;;;19.45;42.67;100887.59;101569;1320;61396;-83
2022/12/09 06:30:25;;;;;;;;;;;;;;;19.48;42.52;100886.85;101737;1313;61443;-85
2022/12/09 06:32:51;;;;;;;;;;;;;;;19.53;42.65;100890.14;101622;1327;61344;-84
2022/12/09 06:35:16;;;;;;;;;;;;;;;19.57;42.55;100893.09;101574;1319;61275;-83
2022/12/09 06:38:06;;;;;;;;;;;;;;;19.62;42.62;100892.08;101657;1320;61431;-83
2022/12/09 06:40:31;;;;;;;;;;;;;;;19.67;42.55;100887.64;101112;1323;72530;-84
2022/12/09 06:42:57;;;;;;;;;;;;;;;19.71;42.42;100883.45;101045;1323;63633;-84
2022/12/09 06:45:22;;;;;;;;;;;;;;;19.75;42.42;100878.37;101030;1327;62015;-84
2022/12/09 06:47:48;;;;;;;;;;;;;;;19.79;42.23;100878.48;101181;1323;61354;-84
2022/12/09 06:50:14;;;;;;;;;;;;;;;19.82;42.17;100879.21;101178;1323;61511;-83
2022/12/09 06:52:39;;;;;;;;;;;;;;;19.83;42.15;100882.86;101046;1324;71707;-82
2022/12/09 06:55:05;;;;;;;;;;;;;;;19.84;42.19;100888.71;101024;1319;64876;-83
2022/12/09 06:57:30;;;;;;;;;;;;;;;19.85;42.10;100893.12;101180;1319;61271;-83
2022/12/09 06:59:56;;;;;;;;;;;;;;;19.82;41.72;100893.64;101219;1322;61412;-83
2022/12/09 07:02:21;;;;;;;;;;;;;;;19.76;41.72;100889.71;101131;1326;61323;-82
2022/12/09 07:04:51;;;;;;;;;;;;;;;19.72;41.78;100887.48;101478;1319;72590;-83
2022/12/09 07:07:16;;;;;;;;;;;;;;;19.69;41.91;100889.49;101621;1319;74872;-83
2022/12/09 07:09:42;;;;;;;;;;;;;;;19.68;41.99;100887.42;101716;1333;61348;-83
2022/12/09 07:12:07;;;;;;;;;;;;;;;19.68;41.98;100890.62;101814;1332;59838;-83
2022/12/09 07:14:32;;;;;;;;;;;;;;;19.68;41.94;100888.30;101656;1324;64072;-83
2022/12/09 07:16:59;;;;;;;;;;;;;;;19.68;41.88;100884.69;101807;1326;61343;-83
2022/12/09 07:19:24;;;;;;;;;;;;;;;19.68;41.90;100884.89;101977;1326;74784;-85
2022/12/09 07:21:50;;;;;;;;;;;;;;;19.69;41.94;100881.80;101948;1320;61201;-83
2022/12/09 07:24:17;;;;;;;;;;;;;;;19.69;41.89;100879.64;101961;1327;61302;-84
2022/12/09 07:26:43;;;;;;;;;;;;;;;19.69;41.83;100881.28;101947;1313;59524;-84
2022/12/09 07:29:08;;;;;;;;;;;;;;;19.69;41.95;100875.52;101875;1320;59911;-83
2022/12/09 07:31:34;;;;;;;;;;;;;;;19.70;41.64;100869.21;101919;1320;61319;-85
2022/12/09 07:33:59;;;;;;;;;;;;;;;19.69;41.70;100870.34;101924;1320;61387;-83
2022/12/09 07:36:26;;;;;;;;;;;;;;;19.69;41.74;100870.71;101826;1317;60845;-83
2022/12/09 07:39:10;;;;;;;;;;;;;;;19.69;41.63;100871.09;101975;1313;73593;-82
2022/12/09 07:41:36;;;;;;;;;;;;;;;19.69;41.52;100870.02;101830;1317;74630;-82
2022/12/09 07:44:01;;;;;;;;;;;;;;;19.67;41.39;100864.98;101910;1321;61292;-82
2022/12/09 07:46:27;;;;;;;;;;;;;;;19.66;41.67;100868.93;101853;1313;61465;-83
2022/12/09 07:48:52;;;;;;;;;;;;;;;19.67;41.59;100871.91;101913;1320;61397;-83
2022/12/09 07:51:18;;;;;;;;;;;;;;;19.67;41.65;100879.61;102056;1319;61464;-83
2022/12/09 07:53:43;;;;;;;;;;;;;;;19.65;41.59;100894.52;102150;1321;61314;-84
2022/12/09 07:56:10;;;;;;;;;;;;;;;19.63;41.61;100896.46;101597;1319;61315;-84
2022/12/09 07:58:36;;;;;;;;;;;;;;;19.59;41.66;100898.31;102821;1327;58935;-82
2022/12/09 08:01:06;;;;;;;;;;;;;;;19.55;41.65;100906.42;102824;1313;59415;-84
2022/12/09 08:03:31;;;;;;;;;;;;;;;19.53;41.71;100902.23;102016;1321;75621;-85
2022/12/09 08:05:57;;;;;;;;;;;;;;;19.55;41.55;100901.56;101980;1313;59586;-84
2022/12/09 08:08:23;;;;;;;;;;;;;;;19.57;41.54;100902.33;101926;1313;61285;-84
2022/12/09 08:10:48;;;;;;;;;;;;;;;19.55;41.52;100906.59;102003;1313;61241;-85
2022/12/09 08:13:23;;;;;;;;;;;;;;;19.50;41.46;100909.02;101935;1313;74797;-84
2022/12/09 08:15:48;;;;;;;;;;;;;;;19.47;41.48;100913.19;102082;1318;61285;-84
2022/12/09 08:18:14;;;;;;;;;;;;;;;19.46;41.66;100913.61;101466;1321;655423;-84
2022/12/09 08:20:39;;;;;;;;;;;;;;;19.48;41.59;100906.68;101993;1321;61281;-84
2022/12/09 08:23:05;;;;;;;;;;;;;;;19.52;41.47;100893.42;101954;1321;73597;-84
2022/12/09 08:25:30;;;;;;;;;;;;;;;19.56;41.63;100893.29;102069;1316;61380;-85
2022/12/09 08:27:56;;;;;;;;;;;;;;;19.60;41.52;100894.29;101975;1320;60019;-85
2022/12/09 08:30:21;;;;;;;;;;;;;;;19.65;41.65;100891.73;101923;1317;59844;-85
2022/12/09 08:32:46;;;;;;;;;;;;;;;19.67;41.48;100886.02;101991;1321;59284;-85
2022/12/09 08:35:13;;;;;;;;;;;;;;;19.70;41.49;100887.40;101941;1313;61441;-84
2022/12/09 08:37:42;;;;;;;;;;;;;;;19.74;41.40;100882.73;102047;1318;75470;-84
2022/12/09 08:40:08;;;;;;;;;;;;;;;19.77;41.36;100890.02;102093;1322;60890;-84
2022/12/09 08:42:33;;;;;;;;;;;;;;;19.80;41.39;100899.13;101953;1327;61677;-84
2022/12/09 08:44:59;;;;;;;;;;;;;;;19.83;41.44;100900.19;102015;1327;61267;-84
2022/12/09 08:47:26;;;;;;;;;;;;;;;19.86;41.54;100909.68;102065;1313;59492;-84
2022/12/09 08:49:51;;;;;;;;;;;;;;;19.87;41.48;100911.92;101873;1329;61307;-84
2022/12/09 08:52:17;;;;;;;;;;;;;;;19.88;41.41;100915.40;102048;1320;61322;-85
2022/12/09 08:54:42;;;;;;;;;;;;;;;19.89;41.53;100908.91;101985;1327;61311;-83
2022/12/09 08:57:10;;;;;;;;;;;;;;;19.92;41.47;100903.77;101617;1327;61372;-83
2022/12/09 08:59:35;;;;;;;;;;;;;;;19.92;41.35;100883.02;101987;1314;74994;-83
2022/12/09 09:02:00;;;;;;;;;;;;;;;19.93;41.36;100881.33;102009;1319;61494;-84
2022/12/09 09:04:26;;;;;;;;;;;;;;;19.95;41.48;100886.24;101929;1314;60183;-84
2022/12/09 09:06:51;;;;;;;;;;;;;;;19.92;41.38;100884.27;101419;1318;61407;-83
2022/12/09 09:09:17;;;;;;;;;;;;;;;19.88;41.31;100886.83;101872;1313;61315;-83
2022/12/09 09:11:42;;;;;;;;;;;;;;;19.88;41.38;100881.33;101962;1318;61459;-84
2022/12/09 09:14:08;;;;;;;;;;;;;;;19.86;41.38;100877.70;101859;1319;59824;-85
2022/12/09 09:16:34;;;;;;;;;;;;;;;19.83;41.53;100883.61;101938;1320;59886;-85
2022/12/09 09:19:00;;;;;;;;;;;;;;;19.80;41.56;100881.13;101874;1320;61273;-84
2022/12/09 09:21:26;;;;;;;;;;;;;;;19.76;41.46;100874.57;101944;1313;61343;-85
2022/12/09 09:23:51;;;;;;;;;;;;;;;19.72;41.54;100871.76;102039;1317;61406;-83
2022/12/09 09:26:18;;;;;;;;;;;;;;;19.70;41.48;100864.21;102052;1321;61245;-83
2022/12/09 09:28:44;;;;;;;;;;;;;;;19.68;41.58;100861.90;101937;1313;61232;-84
2022/12/09 09:31:11;;;;;;;;;;;;;;;19.64;41.44;100861.02;101937;1319;72451;-83
2022/12/09 09:33:36;;;;;;;;;;;;;;;19.61;41.49;100856.42;102364;1316;61427;-84
2022/12/09 09:36:03;;;;;;;;;;;;;;;19.60;41.49;100854.84;101986;1321;61324;-84
2022/12/09 09:38:28;;;;;;;;;;;;;;;19.61;41.45;100858.17;101970;1321;61184;-85
2022/12/09 09:40:55;;;;;;;;;;;;;;;19.63;41.57;100857.92;101975;1321;61281;-84
2022/12/09 09:43:24;;;;;;;;;;;;;;;19.66;41.53;100854.34;101985;1319;59284;-84
2022/12/09 09:45:50;;;;;;;;;;;;;;;19.70;41.48;100851.21;102026;1319;61175;-84
2022/12/09 09:48:16;;;;;;;;;;;;;;;19.72;41.58;100840.69;101955;1313;61204;-84
2022/12/09 09:51:02;;;;;;;;;;;;;;;19.76;41.78;100841.30;102040;1321;61318;-84
2022/12/09 09:53:29;;;;;;;;;;;;;;;19.81;41.68;100838.22;101922;1311;75615;-82
2022/12/09 09:55:55;;;;;;;;;;;;;;;19.83;41.69;100836.27;101871;1313;59943;-84
2022/12/09 09:58:36;;;;;;;;;;;;;;;19.86;41.57;100830.38;101971;1317;61335;-85
2022/12/09 10:01:04;;;;;;;;;;;;;;;19.86;41.72;100823.95;101854;1320;73707;-84
2022/12/09 10:03:32;;;;;;;;;;;;;;;19.82;41.76;100814.04;101661;1320;74469;-85
2022/12/09 10:06:01;;;;;;;;;;;;;;;19.76;41.73;100808.27;101638;1313;61204;-83
2022/12/09 10:08:45;;;;;;;;;;;;;;;19.71;41.61;100810.04;101955;1310;61267;-83
2022/12/09 10:11:16;;;;;;;;;;;;;;;19.66;41.85;100801.32;102009;1313;73301;-84
2022/12/09 10:13:41;;;;;;;;;;;;;;;19.63;41.74;100797.75;101993;1317;74545;-82
2022/12/09 10:16:09;;;;;;;;;;;;;;;19.59;41.76;100791.88;102053;1318;61270;-82
2022/12/09 10:18:41;;;;;;;;;;;;;;;19.59;41.65;100784.41;102021;1320;61670;-84
2022/12/09 10:21:14;;;;;;;;;;;;;;;19.61;41.81;100781.41;102252;1318;72871;-84
2022/12/09 10:23:39;;;;;;;;;;;;;;;19.65;41.84;100775.09;101990;1321;73988;-83
2022/12/09 10:26:07;;;;;;;;;;;;;;;19.70;41.89;100771.70;102028;1318;61268;-84
2022/12/09 10:28:33;;;;;;;;;;;;;;;19.74;41.72;100768.80;101938;1321;61485;-83
2022/12/09 10:30:58;;;;;;;;;;;;;;;19.75;41.60;100767.84;102931;1334;59060;-82
2022/12/09 10:33:25;;;;;;;;;;;;;;;19.76;41.72;100766.86;102202;1316;59413;-82
2022/12/09 10:35:51;;;;;;;;;;;;;;;19.77;41.54;100763.38;102030;1321;61196;-83
2022/12/09 10:38:16;;;;;;;;;;;;;;;19.81;41.57;100757.29;101946;1321;61266;-83
2022/12/09 10:40:42;;;;;;;;;;;;;;;19.84;41.55;100753.91;101922;1313;61269;-82
2022/12/09 10:43:37;;;;;;;;;;;;;;;19.87;41.56;100752.81;101982;1320;61825;-83
2022/12/09 10:46:17;;;;;;;;;;;;;;;19.90;41.61;100754.20;101930;1319;75797;-83
2022/12/09 10:48:46;;;;;;;;;;;;;;;19.92;41.63;100744.92;102002;1313;61340;-83
2022/12/09 10:51:11;;;;;;;;;;;;;;;19.96;41.57;100739.57;101930;1313;61625;-82
2022/12/09 10:53:37;;;;;;;;;;;;;;;19.98;41.56;100736.32;102035;1317;61413;-83
2022/12/09 10:56:02;;;;;;;;;;;;;;;20.01;41.49;100735.04;101951;1329;60231;-84
2022/12/09 10:58:29;;;;;;;;;;;;;;;20.04;41.55;100728.45;101901;1316;61316;-83
2022/12/09 11:01:08;;;;;;;;;;;;;;;20.06;41.44;100730.41;101970;1313;61436;-83
2022/12/09 11:03:35;;;;;;;;;;;;;;;20.08;41.25;100726.91;102006;1318;73580;-84
2022/12/09 11:06:01;;;;;;;;;;;;;;;20.02;41.34;100724.27;101399;1321;74764;-84
2022/12/09 11:08:27;;;;;;;;;;;;;;;19.95;41.37;100714.92;101401;1319;61197;-84
2022/12/09 11:10:53;;;;;;;;;;;;;;;19.88;41.22;100709.66;101389;1311;62729;-84
2022/12/09 11:13:19;;;;;;;;;;;;;;;19.80;41.12;100711.96;101332;1313;61381;-84
2022/12/09 11:15:45;;;;;;;;;;;;;;;19.73;41.39;100712.63;101237;1313;61308;-84
2022/12/09 11:18:22;;;;;;;;;;;;;;;19.71;41.36;100711.35;101400;1329;61350;-84
2022/12/09 11:21:00;;;;;;;;;;;;;;;19.72;41.41;100709.30;102247;1330;60537;-85
2022/12/09 11:23:26;;;;;;;;;;;;;;;19.74;41.36;100706.83;102124;1320;73737;-86
2022/12/09 11:25:53;;;;;;;;;;;;;;;19.73;41.29;100703.30;102240;1319;59389;-83
2022/12/09 11:28:20;;;;;;;;;;;;;;;19.73;41.38;100703.36;101851;1321;61394;-83
2022/12/09 11:30:55;;;;;;;;;;;;;;;19.70;41.24;100697.07;101996;1321;61317;-84
2022/12/09 11:33:29;;;;;;;;;;;;;;;19.68;41.33;100696.90;102077;1327;73486;-83
2022/12/09 11:36:04;;;;;;;;;;;;;;;19.66;41.21;100694.91;102077;1321;74536;-83
2022/12/09 11:38:34;;;;;;;;;;;;;;;19.64;41.26;100695.18;101868;1326;61322;-83
2022/12/09 11:41:14;;;;;;;;;;;;;;;19.63;41.41;100697.06;101992;1320;61165;-83
2022/12/09 11:43:39;;;;;;;;;;;;;;;19.61;41.30;100693.98;101662;1319;72553;-85
2022/12/09 11:46:11;;;;;;;;;;;;;;;19.60;41.33;100692.56;101488;1329;61328;-84
2022/12/09 11:48:38;;;;;;;;;;;;;;;19.59;41.31;100693.52;101843;1316;61732;-83
2022/12/09 11:51:03;;;;;;;;;;;;;;;19.58;41.34;100693.06;102019;1318;62426;-83
2022/12/09 11:53:28;;;;;;;;;;;;;;;19.55;41.28;100692.17;101929;1321;61446;-83
2022/12/09 11:56:04;;;;;;;;;;;;;;;19.53;41.25;100691.60;101914;1326;61323;-84
2022/12/09 11:58:34;;;;;;;;;;;;;;;19.48;41.24;100683.94;101988;1313;60454;-84
2022/12/09 12:01:29;;;;;;;;;;;;;;;19.43;41.45;100683.70;102133;1321;59777;-84
2022/12/09 12:03:59;;;;;;;;;;;;;;;19.34;41.37;100686.83;101943;1324;72620;-85
2022/12/09 12:06:26;;;;;;;;;;;;;;;19.28;41.52;100686.66;101807;1324;74626;-84
2022/12/09 12:08:52;;;;;;;;;;;;;;;19.27;41.59;100683.14;101861;1341;61359;-84
2022/12/09 12:11:18;;;;;;;;;;;;;;;19.27;41.82;100675.13;101940;1332;59709;-84
2022/12/09 12:13:44;;;;;;;;;;;;;;;19.28;41.83;100676.34;101703;1319;62024;-84
2022/12/09 12:16:11;;;;;;;;;;;;;;;19.27;41.83;100683.33;102286;1342;61567;-84
2022/12/09 12:18:47;;;;;;;;;;;;;;;19.27;41.73;100688.85;101649;1320;59787;-84
2022/12/09 12:21:33;;;;;;;;;;;;;;;19.26;41.77;100686.95;102294;1340;60586;-84
2022/12/09 12:24:04;;;;;;;;;;;;;;;19.26;41.85;100681.07;101625;1325;72458;-84
2022/12/09 12:26:38;;;;;;;;;;;;;;;19.27;41.68;100675.32;101717;1324;74658;-84
2022/12/09 12:29:07;;;;;;;;;;;;;;;19.26;41.88;100668.05;101693;1327;61426;-84